createdAt,value
2018-09-11T00:00:18.215Z,59.7745
2018-09-11T00:01:23.099Z,60.2766
2018-09-11T00:02:28.607Z,59.1034
2018-09-11T00:03:34.448Z,59.5235
2018-09-11T00:04:38.509Z,59.7745
2018-09-11T00:05:43.664Z,59.3544
2018-09-11T00:06:49.438Z,60.0256
2018-09-11T00:07:54.663Z,60.0256
2018-09-11T00:08:59.241Z,59.7745
2018-09-11T00:10:04.199Z,60.2766
2018-09-11T00:11:09.187Z,59.3544
2018-09-11T00:12:13.780Z,59.1034
2018-09-11T00:13:19.280Z,59.7745
2018-09-11T00:14:23.875Z,60.2766
2018-09-11T00:15:29.536Z,60.5276
2018-09-11T00:16:34.393Z,58.8524
2018-09-11T00:17:39.914Z,59.3544
2018-09-11T00:18:45.606Z,58.8524
2018-09-11T00:19:50.479Z,59.3544
2018-09-11T00:20:55.431Z,58.6014
2018-09-11T00:22:00.893Z,58.0993
2018-09-11T00:23:05.756Z,59.1034
2018-09-11T00:24:11.217Z,58.6014
2018-09-11T00:25:16.609Z,58.0993
2018-09-11T00:26:21.831Z,57.8483
2018-09-11T00:27:27.481Z,58.3503
2018-09-11T00:28:32.634Z,59.3544
2018-09-11T00:29:38.086Z,58.0993
2018-09-11T00:30:43.209Z,58.6014
2018-09-11T00:31:48.072Z,58.8524
2018-09-11T00:32:53.225Z,58.0993
2018-09-11T00:33:58.553Z,57.8483
2018-09-11T00:35:03.162Z,58.6014
2018-09-11T00:36:08.311Z,58.8524
2018-09-11T00:37:14.012Z,57.5973
2018-09-11T00:38:18.896Z,58.3503
2018-09-11T00:39:24.418Z,57.5973
2018-09-11T00:40:45.071Z,58.0993
2018-09-11T00:41:50.322Z,57.5973
2018-09-11T00:42:55.692Z,57.3463
2018-09-11T00:44:00.845Z,56.8442
2018-09-11T00:45:06.281Z,56.8442
2018-09-11T00:46:12.088Z,57.0952
2018-09-11T00:47:17.273Z,56.8442
2018-09-11T00:48:22.161Z,57.3463
2018-09-11T00:49:27.549Z,57.3463
2018-09-11T00:50:32.729Z,57.0952
2018-09-11T00:51:38.503Z,57.0952
2018-09-11T00:52:43.987Z,56.8442
2018-09-11T00:53:49.429Z,57.0952
2018-09-11T00:54:55.266Z,56.8442
2018-09-11T00:56:00.412Z,57.8483
2018-09-11T01:02:02.140Z,56.8442
2018-09-11T01:03:07.024Z,55.7556
2018-09-11T01:04:13.115Z,57.0952
2018-09-11T01:05:18.580Z,57.0952
2018-09-11T01:06:23.732Z,57.8483
2018-09-11T01:07:29.365Z,57.3463
2018-09-11T01:08:34.530Z,57.5973
2018-09-11T01:09:40.239Z,58.0993
2018-09-11T01:10:45.382Z,57.3463
2018-09-11T01:11:50.530Z,57.3463
2018-09-11T01:12:56.211Z,57.3463
2018-09-11T01:14:01.362Z,56.6777
2018-09-11T01:15:06.620Z,56.8442
2018-09-11T01:16:12.518Z,57.0952
2018-09-11T01:17:17.981Z,56.8442
2018-09-11T01:18:23.144Z,56.8442
2018-09-11T01:19:29.057Z,56.4267
2018-09-11T01:20:34.210Z,57.0952
2018-09-11T01:21:39.717Z,57.5973
2018-09-11T01:22:45.220Z,58.0993
2018-09-11T01:23:50.364Z,58.0993
2018-09-11T01:24:55.871Z,57.8483
2018-09-11T01:26:01.029Z,58.6014
2018-09-11T01:27:06.176Z,57.5973
2018-09-11T01:28:12.133Z,57.0952
2018-09-11T01:29:16.443Z,57.3463
2018-09-11T01:30:21.875Z,57.5973
2018-09-11T01:31:27.330Z,57.8483
2018-09-11T01:32:32.802Z,57.5973
2018-09-11T01:33:38.482Z,57.5973
2018-09-11T01:34:43.972Z,59.3544
2018-09-11T01:35:49.400Z,58.6014
2018-09-11T01:36:55.008Z,58.6014
2018-09-11T01:38:00.469Z,57.5973
2018-09-11T01:39:05.959Z,58.0993
2018-09-11T01:40:11.450Z,58.0993
2018-09-11T01:41:16.592Z,58.6014
2018-09-11T01:42:21.828Z,57.8483
2018-09-11T01:43:27.584Z,59.1034
2018-09-11T01:44:33.120Z,59.1034
2018-09-11T01:45:38.659Z,58.8524
2018-09-11T01:46:43.817Z,58.8524
2018-09-11T01:47:48.968Z,59.3544
2018-09-11T01:48:53.973Z,59.5235
2018-09-11T01:49:59.399Z,59.3544
2018-09-11T01:51:04.828Z,59.5235
2018-09-11T01:52:10.555Z,59.5235
2018-09-11T01:53:15.724Z,59.5235
2018-09-11T01:54:21.202Z,59.3544
2018-09-11T01:55:26.657Z,59.5235
2018-09-11T01:56:32.209Z,60.0256
2018-09-11T01:57:38.255Z,59.3544
2018-09-11T01:58:43.111Z,59.7745
2018-09-11T01:59:48.080Z,59.5235
2018-09-11T02:00:53.802Z,59.5235
2018-09-11T02:01:58.952Z,59.5235
2018-09-11T02:03:04.300Z,58.3503
2018-09-11T02:04:09.553Z,58.8524
2018-09-11T02:05:14.696Z,59.7745
2018-09-11T02:06:20.226Z,59.3544
2018-09-11T02:07:25.681Z,59.3544
2018-09-11T02:08:30.830Z,59.3544
2018-09-11T02:09:36.740Z,59.1034
2018-09-11T02:10:41.935Z,58.8524
2018-09-11T02:11:47.081Z,59.1034
2018-09-11T02:12:52.957Z,58.6014
2018-09-11T02:13:58.182Z,59.3544
2018-09-11T02:15:02.797Z,59.1034
2018-09-11T02:16:08.544Z,58.3503
2018-09-11T02:17:14.182Z,59.7745
2018-09-11T02:18:19.610Z,59.2725
2018-09-11T02:19:24.255Z,59.1034
2018-09-11T02:20:29.169Z,59.2725
2018-09-11T02:21:34.652Z,59.5235
2018-09-11T02:22:39.549Z,59.2725
2018-09-11T02:23:44.449Z,58.8524
2018-09-11T02:24:50.202Z,58.3503
2018-09-11T02:25:55.645Z,59.2725
2018-09-11T02:27:00.789Z,59.5235
2018-09-11T02:28:06.355Z,59.7745
2018-09-11T02:29:11.828Z,59.5235
2018-09-11T02:30:16.679Z,59.7745
2018-09-11T02:31:22.360Z,59.1034
2018-09-11T02:32:27.552Z,58.8524
2018-09-11T02:33:33.250Z,59.5235
2018-09-11T02:34:38.539Z,59.3544
2018-09-11T02:35:44.112Z,59.2725
2018-09-11T02:36:49.889Z,60.0256
2018-09-11T02:37:55.334Z,59.5235
2018-09-11T02:39:00.880Z,59.7745
2018-09-11T02:40:05.978Z,60.0256
2018-09-11T02:41:11.126Z,59.5235
2018-09-11T02:42:16.021Z,60.2766
2018-09-11T02:43:21.234Z,60.0256
2018-09-11T02:44:26.127Z,60.2766
2018-09-11T02:45:31.668Z,60.2766
2018-09-11T02:46:37.122Z,60.2766
2018-09-11T02:47:42.275Z,60.2766
2018-09-11T02:48:48.150Z,60.2766
2018-09-11T02:49:52.733Z,59.7745
2018-09-11T02:50:57.957Z,60.5276
2018-09-11T02:52:03.223Z,60.0256
2018-09-11T02:53:08.375Z,59.5235
2018-09-11T02:54:13.603Z,60.2766
2018-09-11T02:55:18.993Z,59.5235
2018-09-11T02:56:24.501Z,59.7745
2018-09-11T02:57:30.103Z,59.7745
2018-09-11T02:58:35.321Z,58.6014
2018-09-11T02:59:40.773Z,58.8524
2018-09-11T03:00:46.324Z,59.5235
2018-09-11T03:01:51.199Z,58.8524
2018-09-11T03:02:56.555Z,56.8442
2018-09-11T03:04:01.961Z,58.6014
2018-09-11T03:05:06.874Z,58.3503
2018-09-11T03:06:12.026Z,58.0993
2018-09-11T03:07:17.804Z,58.0993
2018-09-11T03:08:22.726Z,57.5973
2018-09-11T03:09:28.279Z,57.8483
2018-09-11T03:10:33.754Z,57.3463
2018-09-11T03:11:38.690Z,57.0952
2018-09-11T03:12:44.475Z,57.5973
2018-09-11T03:13:49.991Z,57.8483
2018-09-11T03:14:55.551Z,57.5973
2018-09-11T03:16:01.340Z,57.5973
2018-09-11T03:17:06.197Z,57.8483
2018-09-11T03:18:11.383Z,58.0993
2018-09-11T03:19:16.905Z,57.3463
2018-09-11T03:20:21.796Z,57.5973
2018-09-11T03:21:41.685Z,57.5973
2018-09-11T03:22:47.135Z,57.8483
2018-09-11T03:23:52.286Z,57.3463
2018-09-11T03:24:57.923Z,57.5973
2018-09-11T03:26:03.084Z,58.0993
2018-09-11T03:27:08.244Z,58.0993
2018-09-11T03:28:14.118Z,58.6014
2018-09-11T03:29:18.971Z,58.3503
2018-09-11T03:30:24.224Z,59.1034
2018-09-11T03:31:29.705Z,58.0993
2018-09-11T03:32:35.137Z,57.8483
2018-09-11T03:33:40.400Z,58.8524
2018-09-11T03:34:45.888Z,58.3503
2018-09-11T03:35:51.038Z,58.0993
2018-09-11T03:36:56.431Z,58.6014
2018-09-11T03:38:01.788Z,58.8524
2018-09-11T03:39:06.929Z,59.3544
2018-09-11T03:40:12.659Z,58.3503
2018-09-11T03:41:17.861Z,59.1034
2018-09-11T03:42:23.003Z,58.6014
2018-09-11T03:43:28.838Z,58.8524
2018-09-11T03:44:33.568Z,58.6014
2018-09-11T03:45:39.351Z,58.6014
2018-09-11T03:46:44.596Z,59.3544
2018-09-11T03:47:50.125Z,59.5235
2018-09-11T03:48:55.682Z,59.7745
2018-09-11T03:50:00.838Z,59.1034
2018-09-11T03:51:06.369Z,58.8524
2018-09-11T03:52:12.053Z,59.3544
2018-09-11T03:53:17.504Z,59.1034
2018-09-11T03:54:22.668Z,58.8524
2018-09-11T03:55:42.169Z,59.3544
2018-09-11T03:56:47.350Z,59.3544
2018-09-11T03:57:53.027Z,59.3544
2018-09-11T03:58:58.287Z,58.6014
2018-09-11T04:00:03.179Z,58.3503
2018-09-11T04:01:08.297Z,58.6014
2018-09-11T04:02:13.773Z,59.8591
2018-09-11T04:03:18.929Z,59.3544
2018-09-11T04:04:24.607Z,59.1034
2018-09-11T04:05:30.161Z,59.6054
2018-09-11T04:06:35.869Z,58.9369
2018-09-11T04:07:41.025Z,59.6054
2018-09-11T04:08:46.179Z,58.9369
2018-09-11T04:09:51.434Z,59.439
2018-09-11T04:10:56.031Z,58.9369
2018-09-11T04:12:01.218Z,58.6859
2018-09-11T04:13:06.629Z,59.439
2018-09-11T04:14:11.777Z,59.69
2018-09-11T04:15:16.710Z,59.188
2018-09-11T04:16:21.979Z,58.1839
2018-09-11T04:17:26.843Z,59.439
2018-09-11T04:18:32.930Z,59.69
2018-09-11T04:19:38.089Z,59.941
2018-09-11T04:20:43.350Z,59.188
2018-09-11T04:21:48.746Z,59.941
2018-09-11T04:22:53.959Z,59.69
2018-09-11T04:23:59.248Z,59.439
2018-09-11T04:25:04.649Z,59.188
2018-09-11T04:26:09.519Z,59.69
2018-09-11T04:27:14.981Z,59.188
2018-09-11T04:28:20.383Z,59.69
2018-09-11T04:29:25.258Z,59.2725
2018-09-11T04:30:30.847Z,59.941
2018-09-11T04:31:36.059Z,59.941
2018-09-11T04:32:41.212Z,59.941
2018-09-11T04:33:46.360Z,60.192
2018-09-11T04:34:51.233Z,60.192
2018-09-11T04:35:56.660Z,60.4431
2018-09-11T04:37:01.763Z,59.0215
2018-09-11T04:38:06.948Z,59.7745
2018-09-11T04:39:12.186Z,60.6941
2018-09-11T04:40:17.048Z,59.7745
2018-09-11T04:41:22.353Z,59.7745
2018-09-11T04:42:28.411Z,60.0256
2018-09-11T04:43:33.298Z,60.0256
2018-09-11T04:44:38.853Z,59.2725
2018-09-11T04:45:44.560Z,59.0215
2018-09-11T04:46:49.995Z,58.7705
2018-09-11T04:47:55.461Z,58.5168
2018-09-11T04:49:00.953Z,60.0256
2018-09-11T04:50:06.425Z,59.2725
2018-09-11T04:51:11.088Z,59.5235
2018-09-11T04:52:16.018Z,59.0215
2018-09-11T04:53:21.216Z,58.7705
2018-09-11T04:54:41.315Z,59.7745
2018-09-11T04:55:46.474Z,59.5235
2018-09-11T04:56:51.655Z,59.0215
2018-09-11T04:57:56.992Z,60.0256
2018-09-11T04:59:02.144Z,60.2766
2018-09-11T05:00:07.037Z,60.2766
2018-09-11T05:01:12.797Z,60.2766
2018-09-11T05:02:17.943Z,60.7786
2018-09-11T05:03:23.122Z,60.0256
2018-09-11T05:04:28.567Z,60.0256
2018-09-11T05:05:33.999Z,60.2766
2018-09-11T05:06:39.687Z,59.7745
2018-09-11T05:07:44.877Z,59.5235
2018-09-11T05:08:50.332Z,59.7745
2018-09-11T05:09:55.881Z,59.7745
2018-09-11T05:11:01.154Z,59.5235
2018-09-11T05:12:06.073Z,59.1034
2018-09-11T05:13:11.925Z,60.5276
2018-09-11T05:14:17.452Z,60.5276
2018-09-11T05:15:22.613Z,60.0256
2018-09-11T05:16:42.758Z,59.7745
2018-09-11T05:17:48.211Z,60.0256
2018-09-11T05:18:53.905Z,60.5276
2018-09-11T05:19:59.118Z,59.8591
2018-09-11T05:21:03.705Z,60.0256
2018-09-11T05:22:09.495Z,59.8591
2018-09-11T05:23:14.759Z,60.2766
2018-09-11T05:24:19.910Z,60.5276
2018-09-11T05:25:25.165Z,60.5276
2018-09-11T05:26:30.394Z,60.0256
2018-09-11T05:27:36.836Z,60.2766
2018-09-11T05:28:41.830Z,60.5276
2018-09-11T05:29:47.029Z,61.0296
2018-09-11T05:30:52.496Z,60.5276
2018-09-11T05:31:57.645Z,60.5276
2018-09-11T05:33:02.520Z,60.7786
2018-09-11T05:34:08.215Z,59.6054
2018-09-11T05:35:13.658Z,60.3611
2018-09-11T05:36:19.097Z,60.3611
2018-09-11T05:37:24.839Z,60.3611
2018-09-11T05:38:30.141Z,60.5276
2018-09-11T05:39:35.852Z,59.8591
2018-09-11T05:40:41.309Z,61.2807
2018-09-11T05:41:46.742Z,60.1075
2018-09-11T05:42:52.424Z,60.3611
2018-09-11T05:43:57.902Z,60.6122
2018-09-11T05:45:03.042Z,60.1075
2018-09-11T05:46:08.593Z,61.0296
2018-09-11T05:47:14.317Z,61.0296
2018-09-11T05:48:20.038Z,60.6122
2018-09-11T05:49:25.117Z,60.7786
2018-09-11T05:50:30.272Z,59.8591
2018-09-11T05:51:35.504Z,61.2807
2018-09-11T05:52:40.960Z,60.7786
2018-09-11T05:53:46.389Z,61.2807
2018-09-11T05:54:51.811Z,60.8632
2018-09-11T05:55:57.386Z,61.5317
2018-09-11T05:57:02.531Z,60.8632
2018-09-11T05:58:07.679Z,61.2807
2018-09-11T05:59:12.883Z,60.3611
2018-09-11T06:00:18.316Z,61.5317
2018-09-11T06:01:23.855Z,61.2807
2018-09-11T06:02:28.732Z,60.6122
2018-09-11T06:03:34.565Z,61.5317
2018-09-11T06:04:39.716Z,61.1142
2018-09-11T06:05:45.737Z,59.8591
2018-09-11T06:06:51.140Z,60.1075
2018-09-11T06:07:56.352Z,60.1075
2018-09-11T06:09:01.604Z,60.3611
2018-09-11T06:10:06.726Z,59.6054
2018-09-11T06:11:12.212Z,61.1142
2018-09-11T06:12:17.120Z,60.6122
2018-09-11T06:13:22.798Z,60.6122
2018-09-11T06:14:28.321Z,60.3611
2018-09-11T06:15:33.779Z,60.1075
2018-09-11T06:16:39.263Z,60.8632
2018-09-11T06:17:44.695Z,61.1142
2018-09-11T06:18:50.259Z,61.1142
2018-09-11T06:19:55.199Z,60.6122
2018-09-11T06:20:59.780Z,61.1142
2018-09-11T06:22:05.650Z,61.1142
2018-09-11T06:23:10.518Z,61.1142
2018-09-11T06:24:15.782Z,61.1142
2018-09-11T06:25:21.295Z,60.8632
2018-09-11T06:26:26.756Z,61.5317
2018-09-11T06:27:31.814Z,61.5317
2018-09-11T06:28:37.388Z,60.6122
2018-09-11T06:29:42.910Z,60.6122
2018-09-11T06:30:48.722Z,60.3611
2018-09-11T06:31:54.019Z,60.3611
2018-09-11T06:32:59.300Z,60.3611
2018-09-11T06:34:04.982Z,59.8591
2018-09-11T06:35:10.425Z,60.7786
2018-09-11T06:36:15.966Z,60.7786
2018-09-11T06:37:21.464Z,60.3611
2018-09-11T06:38:26.619Z,60.3611
2018-09-11T06:39:32.171Z,60.7786
2018-09-11T06:40:37.328Z,59.8591
2018-09-11T06:41:42.543Z,60.7786
2018-09-11T06:42:48.077Z,61.0296
2018-09-11T06:43:53.229Z,61.2807
2018-09-11T06:44:58.730Z,60.7786
2018-09-11T06:46:03.652Z,60.5276
2018-09-11T06:47:08.846Z,60.2766
2018-09-11T06:48:14.226Z,60.5276
2018-09-11T06:49:20.049Z,60.2766
2018-09-11T06:50:24.641Z,60.5276
2018-09-11T06:51:29.518Z,60.0256
2018-09-11T06:52:34.770Z,60.0256
2018-09-11T06:53:39.960Z,60.2766
2018-09-11T06:54:45.686Z,60.2766
2018-09-11T06:55:50.739Z,60.0256
2018-09-11T06:56:56.036Z,59.7745
2018-09-11T06:58:01.433Z,59.3544
2018-09-11T06:59:07.241Z,60.0256
2018-09-11T07:00:12.563Z,59.3544
2018-09-11T07:01:18.253Z,59.3544
2018-09-11T07:02:23.111Z,59.5235
2018-09-11T07:03:28.993Z,59.3544
2018-09-11T07:04:34.276Z,59.5235
2018-09-11T07:05:39.458Z,59.1034
2018-09-11T07:06:45.138Z,58.6014
2018-09-11T07:07:50.281Z,59.5235
2018-09-11T07:08:55.454Z,58.8524
2018-09-11T07:10:01.389Z,59.7745
2018-09-11T07:11:06.922Z,58.8524
2018-09-11T07:12:11.793Z,57.5973
2018-09-11T07:13:18.087Z,58.0993
2018-09-11T07:14:23.262Z,57.5973
2018-09-11T07:15:29.608Z,57.5973
2018-09-11T07:16:34.469Z,58.3503
2018-09-11T07:17:39.827Z,58.3503
2018-09-11T07:18:46.098Z,58.3503
2018-09-11T07:19:52.661Z,57.3463
2018-09-11T07:20:58.493Z,58.6014
2018-09-11T07:22:06.250Z,58.3503
2018-09-11T07:23:11.568Z,57.5973
2018-09-11T07:24:17.012Z,58.6014
2018-09-11T07:25:22.541Z,58.6014
2018-09-11T07:26:27.685Z,58.0993
2018-09-11T07:27:32.526Z,57.5973
2018-09-11T07:28:37.741Z,57.5973
2018-09-11T07:29:42.971Z,58.6014
2018-09-11T07:30:48.694Z,57.3463
2018-09-11T07:31:53.556Z,57.5973
2018-09-11T07:32:58.432Z,57.5973
2018-09-11T07:34:03.900Z,57.8483
2018-09-11T07:35:09.044Z,57.5973
2018-09-11T07:36:14.686Z,57.5973
2018-09-11T07:37:19.712Z,56.8442
2018-09-11T07:38:24.877Z,57.8483
2018-09-11T07:39:30.580Z,56.5932
2018-09-11T07:40:35.737Z,58.3503
2018-09-11T07:41:40.605Z,57.5973
2018-09-11T07:42:46.408Z,57.8483
2018-09-11T07:43:51.598Z,58.3503
2018-09-11T07:44:57.031Z,58.3503
2018-09-11T07:46:02.874Z,58.7705
2018-09-11T07:47:08.135Z,58.3503
2018-09-11T07:48:13.291Z,58.3503
2018-09-11T07:49:19.220Z,59.0215
2018-09-11T07:50:24.823Z,58.7705
2018-09-11T07:51:30.690Z,58.7705
2018-09-11T07:52:36.097Z,59.0215
2018-09-11T07:53:41.847Z,59.0215
2018-09-11T07:54:46.737Z,58.5168
2018-09-11T07:55:52.166Z,58.5168
2018-09-11T07:56:57.325Z,59.2725
2018-09-11T07:58:02.990Z,59.0215
2018-09-11T07:59:08.763Z,59.0215
2018-09-11T08:00:13.898Z,59.5235
2018-09-11T08:01:19.311Z,58.5168
2018-09-11T08:02:24.458Z,58.2684
2018-09-11T08:03:30.377Z,58.7705
2018-09-11T08:04:35.652Z,58.0993
2018-09-11T08:05:40.540Z,58.7705
2018-09-11T08:06:46.139Z,58.0148
2018-09-11T08:07:51.621Z,58.5168
2018-09-11T08:08:56.485Z,59.0215
2018-09-11T08:10:02.457Z,58.5168
2018-09-11T08:11:07.624Z,58.2684
2018-09-11T08:12:13.090Z,59.2725
2018-09-11T08:13:18.895Z,59.5235
2018-09-11T08:14:24.047Z,59.0215
2018-09-11T08:15:29.906Z,58.2684
2018-09-11T08:16:35.229Z,59.5235
2018-09-11T08:17:40.398Z,58.2684
2018-09-11T08:18:45.878Z,58.0148
2018-09-11T08:19:51.155Z,57.5973
2018-09-11T08:20:56.267Z,58.7705
2018-09-11T08:22:01.500Z,58.2684
2018-09-11T08:23:06.927Z,59.0215
2018-09-11T08:24:12.177Z,58.0148
2018-09-11T08:25:17.376Z,58.0148
2018-09-11T08:26:21.939Z,58.2684
2018-09-11T08:27:42.866Z,58.5168
2018-09-11T08:28:48.295Z,58.2684
2018-09-11T08:29:53.755Z,59.0215
2018-09-11T08:30:58.155Z,58.2684
2018-09-11T08:32:03.042Z,59.0215
2018-09-11T08:33:08.206Z,59.0215
2018-09-11T08:34:13.438Z,59.0215
2018-09-11T08:35:18.577Z,58.5168
2018-09-11T08:36:23.567Z,58.7705
2018-09-11T08:37:28.800Z,59.5235
2018-09-11T08:38:33.668Z,58.2684
2018-09-11T08:39:40.019Z,58.2684
2018-09-11T08:40:45.431Z,58.2684
2018-09-11T08:41:50.575Z,58.0148
2018-09-11T08:42:55.810Z,58.7705
2018-09-11T08:44:01.417Z,59.2725
2018-09-11T08:45:05.995Z,59.2725
2018-09-11T08:46:11.647Z,58.5168
2018-09-11T08:47:16.830Z,59.5235
2018-09-11T08:48:21.953Z,59.0215
2018-09-11T08:49:27.180Z,60.0256
2018-09-11T08:50:32.047Z,58.7705
2018-09-11T08:51:37.198Z,60.6941
2018-09-11T08:52:42.516Z,60.192
2018-09-11T08:53:47.989Z,60.6941
2018-09-11T08:54:53.482Z,59.7745
2018-09-11T08:55:59.304Z,59.7745
2018-09-11T08:57:04.464Z,60.9451
2018-09-11T08:58:09.711Z,60.4431
2018-09-11T08:59:14.855Z,60.6941
2018-09-11T09:00:19.955Z,61.1961
2018-09-11T09:01:24.875Z,60.9451
2018-09-11T09:02:30.018Z,60.192
2018-09-11T09:03:35.750Z,60.192
2018-09-11T09:04:40.669Z,60.6941
2018-09-11T09:05:45.823Z,59.941
2018-09-11T09:06:52.360Z,59.7745
2018-09-11T09:07:57.701Z,60.192
2018-09-11T09:09:02.853Z,60.192
2018-09-11T09:10:08.255Z,60.192
2018-09-11T09:11:13.284Z,60.6941
2018-09-11T09:12:18.434Z,59.941
2018-09-11T09:13:23.442Z,61.4498
2018-09-11T09:14:28.639Z,61.1961
2018-09-11T09:15:33.906Z,60.192
2018-09-11T09:16:39.462Z,60.192
2018-09-11T09:17:44.626Z,61.4498
2018-09-11T09:18:50.327Z,61.4498
2018-09-11T09:19:55.472Z,60.6941
2018-09-11T09:21:00.537Z,60.4431
2018-09-11T09:22:06.157Z,60.6941
2018-09-11T09:23:11.364Z,61.7008
2018-09-11T09:24:16.618Z,61.1961
2018-09-11T09:25:22.457Z,62.1183
2018-09-11T09:26:27.936Z,61.7008
2018-09-11T09:27:34.125Z,61.7008
2018-09-11T09:28:39.724Z,62.3693
2018-09-11T09:29:44.742Z,61.7008
2018-09-11T09:30:50.167Z,62.3693
2018-09-11T09:31:55.360Z,61.4498
2018-09-11T09:33:00.584Z,62.1183
2018-09-11T09:34:06.271Z,61.7008
2018-09-11T09:35:10.578Z,62.3693
2018-09-11T09:36:15.922Z,63.2915
2018-09-11T09:37:21.291Z,62.3693
2018-09-11T09:38:26.717Z,62.3693
2018-09-11T09:39:32.557Z,62.1183
2018-09-11T09:40:37.750Z,62.1183
2018-09-11T09:41:43.181Z,62.1183
2018-09-11T09:42:48.856Z,62.7894
2018-09-11T09:43:54.425Z,62.1183
2018-09-11T09:44:59.696Z,62.3693
2018-09-11T09:46:05.320Z,62.7894
2018-09-11T09:47:10.582Z,62.5358
2018-09-11T09:48:15.892Z,62.5358
2018-09-11T09:49:21.927Z,62.7894
2018-09-11T09:50:27.181Z,62.7894
2018-09-11T09:51:33.267Z,63.0405
2018-09-11T09:52:38.200Z,63.2915
2018-09-11T09:53:43.636Z,62.5358
2018-09-11T09:54:49.316Z,62.7894
2018-09-11T09:55:55.109Z,62.7894
2018-09-11T09:57:00.739Z,63.2915
2018-09-11T09:58:06.237Z,63.0405
2018-09-11T09:59:11.469Z,61.1961
2018-09-11T10:00:16.917Z,61.4498
2018-09-11T10:01:22.272Z,62.1183
2018-09-11T10:02:27.151Z,62.1183
2018-09-11T10:03:32.349Z,62.2847
2018-09-11T10:04:37.661Z,61.4498
2018-09-11T10:05:42.518Z,61.4498
2018-09-11T10:06:48.295Z,62.2847
2018-09-11T10:07:53.332Z,62.2847
2018-09-11T10:08:58.557Z,61.4498
2018-09-11T10:10:03.440Z,62.5358
2018-09-11T10:11:08.627Z,62.5358
2018-09-11T10:12:13.769Z,62.7894
2018-09-11T10:13:19.197Z,62.2847
2018-09-11T10:14:24.622Z,62.1183
2018-09-11T10:15:29.009Z,62.5358
2018-09-11T10:16:34.443Z,62.5358
2018-09-11T10:17:40.199Z,61.4498
2018-09-11T10:18:46.169Z,62.5358
2018-09-11T10:19:51.038Z,62.1183
2018-09-11T10:20:56.464Z,62.2847
2018-09-11T10:22:01.941Z,63.0405
2018-09-11T10:23:07.573Z,62.7894
2018-09-11T10:24:13.005Z,62.2847
2018-09-11T10:25:17.946Z,63.2915
2018-09-11T10:26:23.377Z,62.2847
2018-09-11T10:27:28.566Z,63.0405
2018-09-11T10:28:33.930Z,62.2847
2018-09-11T10:29:39.360Z,62.2847
2018-09-11T10:30:45.179Z,62.5358
2018-09-11T10:31:50.689Z,63.0405
2018-09-11T10:32:56.330Z,62.2847
2018-09-11T10:34:01.801Z,62.1183
2018-09-11T10:35:06.450Z,62.5358
2018-09-11T10:36:11.597Z,61.7008
2018-09-11T10:37:16.249Z,62.1183
2018-09-11T10:38:21.433Z,62.2847
2018-09-11T10:39:27.550Z,62.1183
2018-09-11T10:40:32.902Z,62.1183
2018-09-11T10:41:38.379Z,62.1183
2018-09-11T10:42:43.845Z,62.7894
2018-09-11T10:43:49.177Z,62.7894
2018-09-11T10:44:54.788Z,62.7894
2018-09-11T10:46:00.360Z,63.0405
2018-09-11T10:47:04.947Z,62.2847
2018-09-11T10:48:10.177Z,63.2915
2018-09-11T10:49:15.347Z,62.7894
2018-09-11T10:50:20.500Z,63.2915
2018-09-11T10:51:25.841Z,63.0405
2018-09-11T10:52:30.717Z,63.7935
2018-09-11T10:53:35.884Z,63.7935
2018-09-11T10:54:41.590Z,63.0405
2018-09-11T10:55:47.057Z,62.7894
2018-09-11T10:56:51.810Z,63.0405
2018-09-11T10:57:57.440Z,63.2915
2018-09-11T10:59:02.030Z,63.7935
2018-09-11T11:00:07.142Z,63.2915
2018-09-11T11:01:12.357Z,62.5358
2018-09-11T11:02:17.510Z,63.7935
2018-09-11T11:03:22.772Z,63.7935
2018-09-11T11:04:28.681Z,63.0405
2018-09-11T11:05:34.158Z,64.0445
2018-09-11T11:06:40.095Z,63.2915
2018-09-11T11:07:45.546Z,64.0445
2018-09-11T11:08:50.696Z,63.2915
2018-09-11T11:09:56.112Z,63.5425
2018-09-11T11:11:00.729Z,62.7894
2018-09-11T11:12:06.157Z,64.5466
2018-09-11T11:13:11.465Z,63.7935
2018-09-11T11:14:16.629Z,64.9667
2018-09-11T11:15:22.056Z,64.2956
2018-09-11T11:16:26.941Z,65.2177
2018-09-11T11:17:32.777Z,65.4687
2018-09-11T11:18:38.034Z,64.0445
2018-09-11T11:19:43.528Z,65.7198
2018-09-11T11:20:48.972Z,65.2177
2018-09-11T11:21:53.845Z,65.2177
2018-09-11T11:22:58.719Z,66.4728
2018-09-11T11:24:03.910Z,66.2218
2018-09-11T11:25:08.861Z,65.7198
2018-09-11T11:26:14.008Z,65.2177
2018-09-11T11:27:19.228Z,64.5466
2018-09-11T11:28:24.706Z,64.2956
2018-09-11T11:29:29.851Z,64.0445
2018-09-11T11:30:35.538Z,64.9667
2018-09-11T11:31:40.412Z,65.4687
2018-09-11T11:32:45.618Z,65.2177
2018-09-11T11:33:51.302Z,65.2177
2018-09-11T11:34:56.553Z,65.2177
2018-09-11T11:36:01.869Z,65.4687
2018-09-11T11:37:08.854Z,65.7198
2018-09-11T11:38:14.249Z,65.2177
2018-09-11T11:39:19.100Z,65.4687
2018-09-11T11:40:24.832Z,66.2218
2018-09-11T11:41:29.724Z,65.2177
2018-09-11T11:42:34.560Z,65.7198
2018-09-11T11:43:40.058Z,65.7198
2018-09-11T11:44:45.300Z,65.9708
2018-09-11T11:45:50.434Z,65.7198
2018-09-11T11:46:55.581Z,65.2177
2018-09-11T11:48:00.446Z,65.4687
2018-09-11T11:49:05.601Z,64.7157
2018-09-11T11:50:10.224Z,66.2218
2018-09-11T11:51:15.688Z,65.4687
2018-09-11T11:52:21.370Z,65.4687
2018-09-11T11:53:26.881Z,65.9708
2018-09-11T11:54:32.366Z,66.2218
2018-09-11T11:55:37.825Z,65.7198
2018-09-11T11:56:42.498Z,64.9667
2018-09-11T11:57:47.926Z,64.9667
2018-09-11T11:58:53.354Z,65.9708
2018-09-11T11:59:58.898Z,65.4687
2018-09-11T12:01:03.856Z,65.4687
2018-09-11T12:02:08.673Z,65.7198
2018-09-11T12:03:14.220Z,65.2177
2018-09-11T12:04:19.688Z,65.4687
2018-09-11T12:05:25.123Z,66.7238
2018-09-11T12:06:30.896Z,66.893
2018-09-11T12:07:36.089Z,67.646
2018-09-11T12:08:40.990Z,66.7238
2018-09-11T12:09:46.329Z,66.893
2018-09-11T12:10:51.839Z,67.897
2018-09-11T12:11:57.272Z,66.7238
2018-09-11T12:13:02.438Z,66.4728
2018-09-11T12:14:07.878Z,67.395
2018-09-11T12:15:12.751Z,67.897
2018-09-11T12:16:18.293Z,67.395
2018-09-11T12:17:23.740Z,67.395
2018-09-11T12:18:29.706Z,66.7238
2018-09-11T12:19:35.293Z,67.144
2018-09-11T12:20:40.686Z,66.893
2018-09-11T12:21:46.970Z,66.7238
2018-09-11T12:22:51.546Z,66.4728
2018-09-11T12:23:56.928Z,67.646
2018-09-11T12:25:02.330Z,67.395
2018-09-11T12:26:07.243Z,66.893
2018-09-11T12:27:12.856Z,67.897
2018-09-11T12:28:18.617Z,67.897
2018-09-11T12:29:24.076Z,68.9038
2018-09-11T12:30:29.918Z,68.4017
2018-09-11T12:31:35.065Z,68.4017
2018-09-11T12:32:40.233Z,68.1507
2018-09-11T12:33:45.502Z,68.4017
2018-09-11T12:34:50.954Z,67.646
2018-09-11T12:35:55.830Z,69.1548
2018-09-11T12:37:01.289Z,67.646
2018-09-11T12:38:05.888Z,67.897
2018-09-11T12:39:11.084Z,67.646
2018-09-11T12:40:16.348Z,67.646
2018-09-11T12:41:21.703Z,67.144
2018-09-11T12:42:41.611Z,67.897
2018-09-11T12:43:47.065Z,68.1507
2018-09-11T12:44:52.260Z,66.893
2018-09-11T12:45:59.102Z,69.3239
2018-09-11T12:47:06.280Z,68.4017
2018-09-11T12:48:13.504Z,67.897
2018-09-11T12:49:20.922Z,67.646
2018-09-11T12:50:26.127Z,68.1507
2018-09-11T12:51:31.975Z,67.897
2018-09-11T12:52:37.873Z,69.5749
2018-09-11T12:53:43.400Z,68.9038
2018-09-11T12:54:48.549Z,68.4017
2018-09-11T12:55:54.014Z,68.9038
2018-09-11T12:56:59.255Z,68.9038
2018-09-11T12:58:04.601Z,69.1548
2018-09-11T12:59:09.208Z,68.6527
2018-09-11T13:00:14.373Z,69.8259
2018-09-11T13:01:20.101Z,69.1548
2018-09-11T13:02:25.827Z,69.3239
2018-09-11T13:03:31.744Z,70.077
2018-09-11T13:04:36.891Z,69.8259
2018-09-11T13:05:42.396Z,69.5749
2018-09-11T13:06:47.536Z,70.328
2018-09-11T13:07:52.392Z,69.3239
2018-09-11T13:08:57.887Z,70.077
2018-09-11T13:10:02.710Z,69.8259
2018-09-11T13:11:07.647Z,69.8259
2018-09-11T13:12:13.091Z,70.328
2018-09-11T13:13:18.586Z,69.5749
2018-09-11T13:14:23.459Z,70.328
2018-09-11T13:15:29.330Z,70.328
2018-09-11T13:16:33.981Z,70.328
2018-09-11T13:17:39.122Z,69.5749
2018-09-11T13:18:44.805Z,70.077